sensor_id;sensor_type;location;lat;lon;timestamp;pressure;altitude;pressure_sealevel;temperature;humidity
16595;BME280;8410;52.532;13.336;2023-02-28T00:01:08;102710.75;;;3.52;73.64
16595;BME280;8410;52.532;13.336;2023-02-28T00:03:36;102713.84;;;3.60;72.99
16595;BME280;8410;52.532;13.336;2023-02-28T00:06:05;102716.50;;;3.85;72.82
16595;BME280;8410;52.532;13.336;2023-02-28T00:08:33;102713.53;;;4.27;72.32
16595;BME280;8410;52.532;13.336;2023-02-28T00:11:01;102720.03;;;3.87;72.17
16595;BME280;8410;52.532;13.336;2023-02-28T00:13:32;102718.38;;;3.52;73.99
16595;BME280;8410;52.532;13.336;2023-02-28T00:16:02;102726.03;;;3.52;74.86
16595;BME280;8410;52.532;13.336;2023-02-28T00:18:30;102726.25;;;4.02;72.53
16595;BME280;8410;52.532;13.336;2023-02-28T00:20:58;102707.97;;;4.95;70.07
16595;BME280;8410;52.532;13.336;2023-02-28T00:23:26;102704.69;;;4.84;70.28
16595;BME280;8410;52.532;13.336;2023-02-28T00:25:54;102708.53;;;4.91;69.59
16595;BME280;8410;52.532;13.336;2023-02-28T00:28:22;102710.47;;;5.20;68.72
16595;BME280;8410;52.532;13.336;2023-02-28T00:30:51;102706.56;;;5.38;68.27
16595;BME280;8410;52.532;13.336;2023-02-28T00:33:19;102720.44;;;4.53;69.42
16595;BME280;8410;52.532;13.336;2023-02-28T00:35:46;102714.66;;;4.81;70.38
16595;BME280;8410;52.532;13.336;2023-02-28T00:38:15;102705.63;;;5.11;69.14
16595;BME280;8410;52.532;13.336;2023-02-28T00:40:42;102715.69;;;4.46;69.51
16595;BME280;8410;52.532;13.336;2023-02-28T00:43:10;102724.38;;;4.73;70.20
16595;BME280;8410;52.532;13.336;2023-02-28T00:45:37;102711.97;;;4.91;68.33
16595;BME280;8410;52.532;13.336;2023-02-28T00:48:06;102714.16;;;4.98;68.72
16595;BME280;8410;52.532;13.336;2023-02-28T00:50:34;102717.63;;;5.12;68.44
16595;BME280;8410;52.532;13.336;2023-02-28T00:53:01;102719.84;;;5.46;68.58
16595;BME280;8410;52.532;13.336;2023-02-28T00:55:29;102725.72;;;5.58;67.08
16595;BME280;8410;52.532;13.336;2023-02-28T00:57:56;102714.72;;;5.33;68.09
16595;BME280;8410;52.532;13.336;2023-02-28T01:00:23;102716.09;;;5.02;67.09
16595;BME280;8410;52.532;13.336;2023-02-28T01:02:51;102723.00;;;5.03;68.18
16595;BME280;8410;52.532;13.336;2023-02-28T01:05:20;102722.31;;;4.81;69.07
16595;BME280;8410;52.532;13.336;2023-02-28T01:07:47;102708.91;;;5.22;67.46
16595;BME280;8410;52.532;13.336;2023-02-28T01:10:15;102716.06;;;4.76;69.37
16595;BME280;8410;52.532;13.336;2023-02-28T01:12:43;102708.00;;;5.08;68.09
16595;BME280;8410;52.532;13.336;2023-02-28T01:15:13;102713.75;;;4.92;68.68
16595;BME280;8410;52.532;13.336;2023-02-28T01:17:40;102714.66;;;4.81;69.10
16595;BME280;8410;52.532;13.336;2023-02-28T01:20:09;102719.31;;;4.61;69.87
16595;BME280;8410;52.532;13.336;2023-02-28T01:22:38;102712.16;;;4.94;68.51
16595;BME280;8410;52.532;13.336;2023-02-28T01:25:07;102710.19;;;4.90;69.45
16595;BME280;8410;52.532;13.336;2023-02-28T01:27:34;102701.19;;;4.95;68.49
16595;BME280;8410;52.532;13.336;2023-02-28T01:30:02;102699.78;;;4.87;68.43
16595;BME280;8410;52.532;13.336;2023-02-28T01:32:30;102699.66;;;5.11;67.67
16595;BME280;8410;52.532;13.336;2023-02-28T01:34:57;102698.69;;;5.22;67.36
16595;BME280;8410;52.532;13.336;2023-02-28T01:37:25;102699.28;;;5.44;67.36
16595;BME280;8410;52.532;13.336;2023-02-28T01:39:53;102693.59;;;5.22;67.09
16595;BME280;8410;52.532;13.336;2023-02-28T01:42:21;102702.13;;;5.36;66.36
16595;BME280;8410;52.532;13.336;2023-02-28T01:45:02;102698.69;;;5.22;66.72
16595;BME280;8410;52.532;13.336;2023-02-28T01:47:40;102698.41;;;5.44;66.97
16595;BME280;8410;52.532;13.336;2023-02-28T01:50:19;102692.03;;;5.24;67.03
16595;BME280;8410;52.532;13.336;2023-02-28T01:52:48;102701.75;;;4.04;68.84
16595;BME280;8410;52.532;13.336;2023-02-28T01:55:17;102704.41;;;4.42;69.68
16595;BME280;8410;52.532;13.336;2023-02-28T01:57:49;102691.97;;;4.97;68.34
16595;BME280;8410;52.532;13.336;2023-02-28T02:00:20;102689.84;;;5.17;67.64
16595;BME280;8410;52.532;13.336;2023-02-28T02:02:53;102698.69;;;5.22;67.25
16595;BME280;8410;52.532;13.336;2023-02-28T02:05:24;102690.44;;;5.26;67.00
16595;BME280;8410;52.532;13.336;2023-02-28T02:07:54;102697.31;;;5.14;68.22
16595;BME280;8410;52.532;13.336;2023-02-28T02:10:27;102698.25;;;5.02;68.42
16595;BME280;8410;52.532;13.336;2023-02-28T02:13:14;102695.22;;;5.08;67.73
16595;BME280;8410;52.532;13.336;2023-02-28T02:15:53;102697.47;;;5.03;67.85
16595;BME280;8410;52.532;13.336;2023-02-28T02:18:29;102695.25;;;4.83;67.84
16595;BME280;8410;52.532;13.336;2023-02-28T02:21:21;102696.56;;;4.90;68.33
16595;BME280;8410;52.532;13.336;2023-02-28T02:24:22;102687.53;;;4.95;68.78
16595;BME280;8410;52.532;13.336;2023-02-28T02:27:01;102692.56;;;5.06;67.42
16595;BME280;8410;52.532;13.336;2023-02-28T02:32:59;102687.97;;;4.76;68.81
16595;BME280;8410;52.532;13.336;2023-02-28T02:35:35;102691.44;;;4.64;69.05
16595;BME280;8410;52.532;13.336;2023-02-28T02:38:10;102698.41;;;4.79;68.86
16595;BME280;8410;52.532;13.336;2023-02-28T02:40:44;102691.09;;;4.72;69.08
16595;BME280;8410;52.532;13.336;2023-02-28T02:43:18;102694.13;;;4.66;68.88
16595;BME280;8410;52.532;13.336;2023-02-28T02:45:51;102698.44;;;4.67;68.34
16595;BME280;8410;52.532;13.336;2023-02-28T02:48:21;102699.44;;;4.44;68.98
16595;BME280;8410;52.532;13.336;2023-02-28T02:50:55;102696.81;;;4.56;69.17
16595;BME280;8410;52.532;13.336;2023-02-28T02:53:27;102697.56;;;4.41;70.26
16595;BME280;8410;52.532;13.336;2023-02-28T02:55:58;102694.47;;;4.34;69.41
16595;BME280;8410;52.532;13.336;2023-02-28T02:58:32;102700.13;;;4.30;71.04
16595;BME280;8410;52.532;13.336;2023-02-28T03:01:02;102698.84;;;4.48;70.70
16595;BME280;8410;52.532;13.336;2023-02-28T03:03:32;102700.41;;;4.46;69.64
16595;BME280;8410;52.532;13.336;2023-02-28T03:06:03;102697.28;;;4.50;69.76
16595;BME280;8410;52.532;13.336;2023-02-28T03:08:36;102701.63;;;4.14;70.07
16595;BME280;8410;52.532;13.336;2023-02-28T03:11:05;102700.91;;;4.29;71.16
16595;BME280;8410;52.532;13.336;2023-02-28T03:13:52;102702.22;;;4.35;70.68
16595;BME280;8410;52.532;13.336;2023-02-28T03:16:36;102707.63;;;3.91;70.81
16595;BME280;8410;52.532;13.336;2023-02-28T03:19:29;102706.69;;;4.26;71.01
16595;BME280;8410;52.532;13.336;2023-02-28T03:22:12;102708.50;;;4.40;71.19
16595;BME280;8410;52.532;13.336;2023-02-28T03:24:45;102710.38;;;4.43;70.35
16595;BME280;8410;52.532;13.336;2023-02-28T03:27:21;102716.13;;;4.15;70.21
16595;BME280;8410;52.532;13.336;2023-02-28T03:29:55;102715.47;;;4.18;71.74
16595;BME280;8410;52.532;13.336;2023-02-28T03:32:28;102723.06;;;4.30;70.89
16595;BME280;8410;52.532;13.336;2023-02-28T03:35:01;102722.16;;;4.41;70.04
16595;BME280;8410;52.532;13.336;2023-02-28T03:37:37;102717.13;;;4.17;71.04
16595;BME280;8410;52.532;13.336;2023-02-28T03:40:08;102716.91;;;4.14;70.92
16595;BME280;8410;52.532;13.336;2023-02-28T03:42:41;102720.69;;;4.08;71.48
16595;BME280;8410;52.532;13.336;2023-02-28T03:45:12;102719.56;;;4.28;71.28
16595;BME280;8410;52.532;13.336;2023-02-28T03:47:45;102720.66;;;4.19;70.97
16595;BME280;8410;52.532;13.336;2023-02-28T03:50:17;102723.78;;;4.15;70.41
16595;BME280;8410;52.532;13.336;2023-02-28T03:52:50;102723.03;;;4.05;70.76
16595;BME280;8410;52.532;13.336;2023-02-28T03:55:20;102718.50;;;3.89;71.82
16595;BME280;8410;52.532;13.336;2023-02-28T03:57:55;102726.69;;;3.85;72.43
16595;BME280;8410;52.532;13.336;2023-02-28T04:00:27;102725.13;;;4.10;72.06
16595;BME280;8410;52.532;13.336;2023-02-28T04:02:56;102720.72;;;3.84;72.16
16595;BME280;8410;52.532;13.336;2023-02-28T04:05:23;102721.28;;;3.80;72.88
16595;BME280;8410;52.532;13.336;2023-02-28T04:07:52;102725.34;;;3.90;72.88
16595;BME280;8410;52.532;13.336;2023-02-28T04:10:20;102726.25;;;3.79;72.98
16595;BME280;8410;52.532;13.336;2023-02-28T04:12:47;102728.38;;;3.72;72.95
16595;BME280;8410;52.532;13.336;2023-02-28T04:15:15;102723.94;;;3.93;72.50
16595;BME280;8410;52.532;13.336;2023-02-28T04:17:42;102727.34;;;3.94;72.59
16595;BME280;8410;52.532;13.336;2023-02-28T04:20:11;102724.28;;;3.74;72.53
16595;BME280;8410;52.532;13.336;2023-02-28T04:22:38;102726.28;;;3.67;72.55
16595;BME280;8410;52.532;13.336;2023-02-28T04:25:08;102723.16;;;3.83;72.79
16595;BME280;8410;52.532;13.336;2023-02-28T04:27:35;102729.91;;;3.70;73.23
16595;BME280;8410;52.532;13.336;2023-02-28T04:30:03;102732.91;;;3.76;72.57
16595;BME280;8410;52.532;13.336;2023-02-28T04:32:31;102732.25;;;3.67;73.76
16595;BME280;8410;52.532;13.336;2023-02-28T04:34:58;102725.59;;;3.69;73.01
16595;BME280;8410;52.532;13.336;2023-02-28T04:37:26;102731.81;;;3.61;72.97
16595;BME280;8410;52.532;13.336;2023-02-28T04:39:55;102731.34;;;3.55;73.56
16595;BME280;8410;52.532;13.336;2023-02-28T04:42:23;102734.56;;;3.41;74.40
16595;BME280;8410;52.532;13.336;2023-02-28T04:44:51;102735.13;;;3.72;73.86
16595;BME280;8410;52.532;13.336;2023-02-28T04:47:18;102733.34;;;3.83;73.01
16595;BME280;8410;52.532;13.336;2023-02-28T04:49:46;102734.47;;;3.74;72.69
16595;BME280;8410;52.532;13.336;2023-02-28T04:52:13;102738.19;;;4.03;72.33
16595;BME280;8410;52.532;13.336;2023-02-28T04:54:41;102730.81;;;3.83;72.74
16595;BME280;8410;52.532;13.336;2023-02-28T04:57:08;102730.47;;;3.66;72.30
16595;BME280;8410;52.532;13.336;2023-02-28T04:59:37;102737.22;;;3.78;72.67
16595;BME280;8410;52.532;13.336;2023-02-28T05:02:04;102740.78;;;3.80;73.20
16595;BME280;8410;52.532;13.336;2023-02-28T05:04:33;102744.63;;;3.63;72.79
16595;BME280;8410;52.532;13.336;2023-02-28T05:07:02;102744.97;;;3.67;73.51
16595;BME280;8410;52.532;13.336;2023-02-28T05:09:30;102746.06;;;3.36;73.68
16595;BME280;8410;52.532;13.336;2023-02-28T05:11:59;102748.84;;;3.50;73.85
16595;BME280;8410;52.532;13.336;2023-02-28T05:14:26;102750.75;;;3.53;72.80
16595;BME280;8410;52.532;13.336;2023-02-28T05:16:55;102744.50;;;3.38;74.18
16595;BME280;8410;52.532;13.336;2023-02-28T05:19:22;102749.03;;;3.30;74.64
16595;BME280;8410;52.532;13.336;2023-02-28T05:21:51;102750.34;;;3.37;74.44
16595;BME280;8410;52.532;13.336;2023-02-28T05:24:19;102756.75;;;3.20;75.24
16595;BME280;8410;52.532;13.336;2023-02-28T05:26:50;102754.59;;;3.48;74.42
16595;BME280;8410;52.532;13.336;2023-02-28T05:29:18;102755.03;;;3.54;73.94
16595;BME280;8410;52.532;13.336;2023-02-28T05:31:46;102767.59;;;3.17;73.74
16595;BME280;8410;52.532;13.336;2023-02-28T05:34:16;102757.91;;;3.47;74.34
16595;BME280;8410;52.532;13.336;2023-02-28T05:36:43;102758.25;;;3.40;74.61
16595;BME280;8410;52.532;13.336;2023-02-28T05:39:11;102756.59;;;3.52;74.03
16595;BME280;8410;52.532;13.336;2023-02-28T05:41:40;102760.44;;;3.47;74.29
16595;BME280;8410;52.532;13.336;2023-02-28T05:44:08;102760.66;;;3.50;73.90
16595;BME280;8410;52.532;13.336;2023-02-28T05:46:35;102767.63;;;3.29;75.31
16595;BME280;8410;52.532;13.336;2023-02-28T05:49:03;102764.31;;;3.42;74.31
16595;BME280;8410;52.532;13.336;2023-02-28T05:51:32;102768.13;;;3.59;74.21
16595;BME280;8410;52.532;13.336;2023-02-28T05:54:00;102773.66;;;3.65;73.78
16595;BME280;8410;52.532;13.336;2023-02-28T05:56:28;102771.56;;;3.71;73.41
16595;BME280;8410;52.532;13.336;2023-02-28T05:58:56;102770.75;;;3.60;74.03
16595;BME280;8410;52.532;13.336;2023-02-28T06:01:31;102775.19;;;3.51;74.99
16595;BME280;8410;52.532;13.336;2023-02-28T06:03:59;102781.69;;;3.24;75.31
16595;BME280;8410;52.532;13.336;2023-02-28T06:06:28;102771.34;;;3.56;75.49
16595;BME280;8410;52.532;13.336;2023-02-28T06:08:57;102773.22;;;3.70;74.51
16595;BME280;8410;52.532;13.336;2023-02-28T06:11:25;102776.56;;;3.69;74.59
16595;BME280;8410;52.532;13.336;2023-02-28T06:13:55;102773.88;;;3.56;75.01
16595;BME280;8410;52.532;13.336;2023-02-28T06:16:23;102778.13;;;3.34;75.35
16595;BME280;8410;52.532;13.336;2023-02-28T06:18:51;102782.19;;;3.20;76.01
16595;BME280;8410;52.532;13.336;2023-02-28T06:21:18;102789.53;;;3.27;76.20
16595;BME280;8410;52.532;13.336;2023-02-28T06:23:46;102789.09;;;3.33;76.17
16595;BME280;8410;52.532;13.336;2023-02-28T06:26:15;102782.94;;;3.41;76.18
16595;BME280;8410;52.532;13.336;2023-02-28T06:28:42;102783.59;;;3.50;76.52
16595;BME280;8410;52.532;13.336;2023-02-28T06:31:12;102789.34;;;3.36;76.51
16595;BME280;8410;52.532;13.336;2023-02-28T06:33:40;102794.03;;;3.19;76.50
16595;BME280;8410;52.532;13.336;2023-02-28T06:36:10;102799.06;;;3.29;75.50
16595;BME280;8410;52.532;13.336;2023-02-28T06:38:39;102799.44;;;3.12;76.86
16595;BME280;8410;52.532;13.336;2023-02-28T06:41:07;102803.06;;;3.38;76.34
16595;BME280;8410;52.532;13.336;2023-02-28T06:43:39;102805.25;;;3.21;76.66
16595;BME280;8410;52.532;13.336;2023-02-28T06:46:10;102809.69;;;3.36;76.64
16595;BME280;8410;52.532;13.336;2023-02-28T06:48:38;102809.38;;;3.43;76.98
16595;BME280;8410;52.532;13.336;2023-02-28T06:51:08;102813.31;;;3.61;75.71
16595;BME280;8410;52.532;13.336;2023-02-28T06:53:36;102808.31;;;3.51;75.87
16595;BME280;8410;52.532;13.336;2023-02-28T06:56:05;102813.09;;;3.70;75.15
16595;BME280;8410;52.532;13.336;2023-02-28T06:58:33;102816.75;;;3.73;75.00
16595;BME280;8410;52.532;13.336;2023-02-28T07:01:03;102813.88;;;3.81;75.60
16595;BME280;8410;52.532;13.336;2023-02-28T07:03:31;102818.06;;;3.68;75.42
16595;BME280;8410;52.532;13.336;2023-02-28T07:06:00;102820.81;;;3.48;76.26
16595;BME280;8410;52.532;13.336;2023-02-28T07:08:28;102815.06;;;3.74;75.94
16595;BME280;8410;52.532;13.336;2023-02-28T07:10:55;102823.75;;;3.88;75.72
16595;BME280;8410;52.532;13.336;2023-02-28T07:13:24;102815.53;;;3.80;76.12
16595;BME280;8410;52.532;13.336;2023-02-28T07:15:55;102820.84;;;3.95;76.00
16595;BME280;8410;52.532;13.336;2023-02-28T07:18:24;102816.22;;;3.78;76.06
16595;BME280;8410;52.532;13.336;2023-02-28T07:20:52;102816.75;;;3.97;75.15
16595;BME280;8410;52.532;13.336;2023-02-28T07:23:20;102821.31;;;3.78;75.82
16595;BME280;8410;52.532;13.336;2023-02-28T07:25:49;102818.19;;;3.82;75.99
16595;BME280;8410;52.532;13.336;2023-02-28T07:28:18;102817.53;;;3.84;75.37
16595;BME280;8410;52.532;13.336;2023-02-28T07:30:45;102824.41;;;3.97;75.58
16595;BME280;8410;52.532;13.336;2023-02-28T07:33:14;102830.38;;;3.97;75.51
16595;BME280;8410;52.532;13.336;2023-02-28T07:35:43;102823.06;;;4.26;75.55
16595;BME280;8410;52.532;13.336;2023-02-28T07:38:11;102823.84;;;4.36;74.61
16595;BME280;8410;52.532;13.336;2023-02-28T07:40:39;102822.81;;;4.46;73.53
16595;BME280;8410;52.532;13.336;2023-02-28T07:43:07;102827.69;;;4.43;74.62
16595;BME280;8410;52.532;13.336;2023-02-28T07:45:35;102828.16;;;4.49;74.28
16595;BME280;8410;52.532;13.336;2023-02-28T07:48:02;102823.47;;;4.43;74.04
16595;BME280;8410;52.532;13.336;2023-02-28T07:50:30;102830.56;;;4.59;73.67
16595;BME280;8410;52.532;13.336;2023-02-28T07:52:59;102835.50;;;4.09;73.19
16595;BME280;8410;52.532;13.336;2023-02-28T07:55:26;102820.25;;;4.46;71.38
16595;BME280;8410;52.532;13.336;2023-02-28T07:57:54;102828.94;;;4.85;70.04
16595;BME280;8410;52.532;13.336;2023-02-28T08:00:22;102824.25;;;4.91;69.94
16595;BME280;8410;52.532;13.336;2023-02-28T08:02:50;102833.59;;;4.91;69.54
16595;BME280;8410;52.532;13.336;2023-02-28T08:05:18;102834.38;;;4.90;70.28
16595;BME280;8410;52.532;13.336;2023-02-28T08:07:49;102828.34;;;4.89;68.49
16595;BME280;8410;52.532;13.336;2023-02-28T08:10:18;102832.69;;;4.90;66.98
16595;BME280;8410;52.532;13.336;2023-02-28T08:12:45;102825.19;;;5.05;66.98
16595;BME280;8410;52.532;13.336;2023-02-28T08:15:13;102818.50;;;5.19;66.81
16595;BME280;8410;52.532;13.336;2023-02-28T08:17:40;102820.09;;;5.30;65.38
16595;BME280;8410;52.532;13.336;2023-02-28T08:20:09;102821.97;;;5.07;63.51
16595;BME280;8410;52.532;13.336;2023-02-28T08:22:37;102819.25;;;5.18;63.15
16595;BME280;8410;52.532;13.336;2023-02-28T08:25:05;102816.25;;;5.62;61.62
16595;BME280;8410;52.532;13.336;2023-02-28T08:27:35;102819.41;;;5.71;61.60
16595;BME280;8410;52.532;13.336;2023-02-28T08:30:03;102820.88;;;5.67;59.82
16595;BME280;8410;52.532;13.336;2023-02-28T08:32:31;102809.78;;;5.80;57.42
16595;BME280;8410;52.532;13.336;2023-02-28T08:34:59;102825.81;;;5.39;57.61
16595;BME280;8410;52.532;13.336;2023-02-28T08:37:28;102824.25;;;4.91;54.22
16595;BME280;8410;52.532;13.336;2023-02-28T08:39:55;102824.66;;;5.47;52.84
16595;BME280;8410;52.532;13.336;2023-02-28T08:42:23;102818.59;;;5.72;52.97
16595;BME280;8410;52.532;13.336;2023-02-28T08:44:52;102827.72;;;5.93;52.50
16595;BME280;8410;52.532;13.336;2023-02-28T08:47:19;102825.56;;;6.00;52.67
16595;BME280;8410;52.532;13.336;2023-02-28T08:49:47;102824.78;;;5.62;51.57
16595;BME280;8410;52.532;13.336;2023-02-28T08:52:14;102820.13;;;5.95;51.68
16595;BME280;8410;52.532;13.336;2023-02-28T08:54:42;102822.00;;;5.97;51.69
16595;BME280;8410;52.532;13.336;2023-02-28T08:57:09;102834.03;;;5.73;50.44
16595;BME280;8410;52.532;13.336;2023-02-28T08:59:37;102832.91;;;5.43;50.66
16595;BME280;8410;52.532;13.336;2023-02-28T09:02:06;102818.81;;;5.75;50.80
16595;BME280;8410;52.532;13.336;2023-02-28T09:04:33;102824.63;;;5.86;49.35
16595;BME280;8410;52.532;13.336;2023-02-28T09:07:01;102824.91;;;5.77;51.02
16595;BME280;8410;52.532;13.336;2023-02-28T09:09:28;102825.19;;;5.68;52.11
16595;BME280;8410;52.532;13.336;2023-02-28T09:11:56;102824.94;;;6.30;52.60
16595;BME280;8410;52.532;13.336;2023-02-28T09:14:24;102832.19;;;5.84;50.66
16595;BME280;8410;52.532;13.336;2023-02-28T09:16:51;102820.06;;;6.07;56.21
16595;BME280;8410;52.532;13.336;2023-02-28T09:19:20;102830.22;;;6.60;51.87
16595;BME280;8410;52.532;13.336;2023-02-28T09:21:48;102826.94;;;6.08;50.67
16595;BME280;8410;52.532;13.336;2023-02-28T09:24:16;102832.03;;;5.94;49.23
16595;BME280;8410;52.532;13.336;2023-02-28T09:26:44;102830.22;;;5.67;49.67
16595;BME280;8410;52.532;13.336;2023-02-28T09:29:29;102821.34;;;5.48;50.39
16595;BME280;8410;52.532;13.336;2023-02-28T09:31:57;102816.31;;;6.02;49.38
16595;BME280;8410;52.532;13.336;2023-02-28T09:34:26;102817.09;;;6.14;48.17
16595;BME280;8410;52.532;13.336;2023-02-28T09:36:57;102826.06;;;6.07;48.46
16595;BME280;8410;52.532;13.336;2023-02-28T09:39:24;102825.13;;;6.33;49.77
16595;BME280;8410;52.532;13.336;2023-02-28T09:41:54;102817.09;;;6.14;49.69
16595;BME280;8410;52.532;13.336;2023-02-28T09:44:26;102822.00;;;6.24;48.60
16595;BME280;8410;52.532;13.336;2023-02-28T09:46:59;102823.22;;;6.57;48.97
16595;BME280;8410;52.532;13.336;2023-02-28T09:49:34;102822.00;;;6.24;49.30
16595;BME280;8410;52.532;13.336;2023-02-28T09:52:05;102822.19;;;6.27;48.20
16595;BME280;8410;52.532;13.336;2023-02-28T09:54:36;102823.75;;;6.38;47.69
16595;BME280;8410;52.532;13.336;2023-02-28T09:57:08;102830.34;;;6.35;48.41
16595;BME280;8410;52.532;13.336;2023-02-28T09:59:44;102845.34;;;4.89;49.89
16595;BME280;8410;52.532;13.336;2023-02-28T10:02:39;102833.50;;;5.52;50.88
16595;BME280;8410;52.532;13.336;2023-02-28T10:05:11;102829.81;;;5.74;49.41
16595;BME280;8410;52.532;13.336;2023-02-28T10:07:59;102824.88;;;6.15;50.08
16595;BME280;8410;52.532;13.336;2023-02-28T10:10:31;102825.34;;;6.36;48.53
16595;BME280;8410;52.532;13.336;2023-02-28T10:13:02;102827.50;;;6.17;50.10
16595;BME280;8410;52.532;13.336;2023-02-28T10:15:33;102839.88;;;5.21;49.74
16595;BME280;8410;52.532;13.336;2023-02-28T10:18:04;102835.63;;;5.33;52.04
16595;BME280;8410;52.532;13.336;2023-02-28T10:20:39;102831.19;;;5.69;49.48
16595;BME280;8410;52.532;13.336;2023-02-28T10:23:12;102830.78;;;5.63;50.35
16595;BME280;8410;52.532;13.336;2023-02-28T10:25:45;102837.56;;;5.24;49.60
16595;BME280;8410;52.532;13.336;2023-02-28T10:28:16;102847.66;;;4.60;51.83
16595;BME280;8410;52.532;13.336;2023-02-28T10:30:46;102836.72;;;4.75;52.10
16595;BME280;8410;52.532;13.336;2023-02-28T10:33:21;102829.75;;;5.47;50.92
16595;BME280;8410;52.532;13.336;2023-02-28T10:35:50;102835.81;;;4.86;50.79
16595;BME280;8410;52.532;13.336;2023-02-28T10:38:20;102840.44;;;4.55;52.20
16595;BME280;8410;52.532;13.336;2023-02-28T10:40:48;102833.44;;;5.26;50.44
16595;BME280;8410;52.532;13.336;2023-02-28T10:43:21;102835.94;;;5.13;50.71
16595;BME280;8410;52.532;13.336;2023-02-28T10:45:57;102843.38;;;4.73;52.50
16595;BME280;8410;52.532;13.336;2023-02-28T10:48:30;102838.41;;;4.99;51.75
16595;BME280;8410;52.532;13.336;2023-02-28T10:51:00;102827.44;;;6.29;50.46
16595;BME280;8410;52.532;13.336;2023-02-28T10:53:33;102828.44;;;5.79;49.30
16595;BME280;8410;52.532;13.336;2023-02-28T10:56:21;102828.44;;;4.66;51.81
16595;BME280;8410;52.532;13.336;2023-02-28T10:58:52;102821.13;;;5.97;50.55
16595;BME280;8410;52.532;13.336;2023-02-28T11:01:23;102814.78;;;5.27;50.63
16595;BME280;8410;52.532;13.336;2023-02-28T11:03:52;102810.72;;;5.56;50.27
16595;BME280;8410;52.532;13.336;2023-02-28T11:06:22;102813.06;;;5.52;50.38
16595;BME280;8410;52.532;13.336;2023-02-28T11:08:52;102800.47;;;5.42;50.83
16595;BME280;8410;52.532;13.336;2023-02-28T11:11:22;102812.13;;;4.63;51.43
16595;BME280;8410;52.532;13.336;2023-02-28T11:13:52;102806.16;;;4.63;51.98
16595;BME280;8410;52.532;13.336;2023-02-28T11:16:22;102801.97;;;5.14;52.16
16595;BME280;8410;52.532;13.336;2023-02-28T11:18:59;102796.44;;;5.07;50.76
16595;BME280;8410;52.532;13.336;2023-02-28T11:21:30;102797.88;;;5.29;50.39
16595;BME280;8410;52.532;13.336;2023-02-28T11:24:04;102790.03;;;6.72;48.67
16595;BME280;8410;52.532;13.336;2023-02-28T11:26:39;102773.81;;;6.87;48.18
16595;BME280;8410;52.532;13.336;2023-02-28T11:29:16;102771.97;;;7.57;47.18
16595;BME280;8410;52.532;13.336;2023-02-28T11:32:00;102793.72;;;6.49;48.10
16595;BME280;8410;52.532;13.336;2023-02-28T11:34:29;102786.72;;;6.05;48.82
16595;BME280;8410;52.532;13.336;2023-02-28T11:36:59;102782.09;;;5.35;49.48
16595;BME280;8410;52.532;13.336;2023-02-28T11:39:31;102790.53;;;5.34;50.88
16595;BME280;8410;52.532;13.336;2023-02-28T11:42:11;102781.53;;;5.52;50.35
16595;BME280;8410;52.532;13.336;2023-02-28T11:44:59;102784.44;;;6.36;48.63
16595;BME280;8410;52.532;13.336;2023-02-28T11:47:34;102772.59;;;6.95;47.95
16595;BME280;8410;52.532;13.336;2023-02-28T11:50:27;102782.47;;;6.06;48.61
16595;BME280;8410;52.532;13.336;2023-02-28T11:53:01;102782.09;;;5.48;49.96
16595;BME280;8410;52.532;13.336;2023-02-28T11:55:35;102786.78;;;5.28;50.37
16595;BME280;8410;52.532;13.336;2023-02-28T11:58:23;102789.84;;;6.14;48.94
16595;BME280;8410;52.532;13.336;2023-02-28T12:01:04;102788.34;;;5.65;50.57
16595;BME280;8410;52.532;13.336;2023-02-28T12:03:43;102782.59;;;5.56;50.91
16595;BME280;8410;52.532;13.336;2023-02-28T12:06:19;102778.66;;;5.47;51.01
16595;BME280;8410;52.532;13.336;2023-02-28T12:08:57;102777.25;;;5.26;51.67
16595;BME280;8410;52.532;13.336;2023-02-28T12:11:36;102780.25;;;5.45;50.24
16595;BME280;8410;52.532;13.336;2023-02-28T12:14:24;102785.44;;;5.34;51.03
16595;BME280;8410;52.532;13.336;2023-02-28T12:17:03;102778.69;;;5.74;51.43
16595;BME280;8410;52.532;13.336;2023-02-28T12:19:41;102780.22;;;6.52;48.94
16595;BME280;8410;52.532;13.336;2023-02-28T12:22:26;102765.50;;;6.76;48.31
16595;BME280;8410;52.532;13.336;2023-02-28T12:25:22;102768.72;;;5.25;51.07
16595;BME280;8410;52.532;13.336;2023-02-28T12:27:53;102760.81;;;5.61;51.09
16595;BME280;8410;52.532;13.336;2023-02-28T12:30:23;102768.66;;;5.50;50.65
16595;BME280;8410;52.532;13.336;2023-02-28T12:32:55;102765.06;;;5.22;51.39
16595;BME280;8410;52.532;13.336;2023-02-28T12:35:26;102761.41;;;5.70;51.08
16595;BME280;8410;52.532;13.336;2023-02-28T12:37:57;102744.78;;;6.16;50.50
16595;BME280;8410;52.532;13.336;2023-02-28T12:40:33;102737.16;;;7.31;48.81
16595;BME280;8410;52.532;13.336;2023-02-28T12:43:08;102737.03;;;6.28;49.28
16595;BME280;8410;52.532;13.336;2023-02-28T12:45:40;102744.22;;;5.81;49.85
16595;BME280;8410;52.532;13.336;2023-02-28T12:48:13;102724.00;;;6.67;49.19
16595;BME280;8410;52.532;13.336;2023-02-28T12:50:42;102729.06;;;5.84;49.62
16595;BME280;8410;52.532;13.336;2023-02-28T12:53:15;102721.03;;;5.91;51.32
16595;BME280;8410;52.532;13.336;2023-02-28T12:55:50;102729.94;;;5.58;50.45
16595;BME280;8410;52.532;13.336;2023-02-28T12:58:26;102719.16;;;5.48;50.62
16595;BME280;8410;52.532;13.336;2023-02-28T13:01:12;102707.88;;;6.39;49.81
16595;BME280;8410;52.532;13.336;2023-02-28T13:03:59;102705.97;;;5.95;49.73
16595;BME280;8410;52.532;13.336;2023-02-28T13:06:42;102707.34;;;6.04;48.97
16595;BME280;8410;52.532;13.336;2023-02-28T13:09:13;102692.50;;;6.39;49.35
16595;BME280;8410;52.532;13.336;2023-02-28T13:11:47;102677.16;;;7.42;47.42
16595;BME280;8410;52.532;13.336;2023-02-28T13:14:26;102678.56;;;7.83;46.45
16595;BME280;8410;52.532;13.336;2023-02-28T13:17:00;102678.91;;;7.89;45.81
16595;BME280;8410;52.532;13.336;2023-02-28T13:19:31;102684.94;;;8.06;46.11
16595;BME280;8410;52.532;13.336;2023-02-28T13:21:59;102683.09;;;7.11;48.54
16595;BME280;8410;52.532;13.336;2023-02-28T13:24:43;102681.81;;;8.11;45.96